sensor_id;sensor_type;location;lat;lon;timestamp;P1;durP1;ratioP1;P2;durP2;ratioP2
17592;SDS011;8915;51.760;14.300;2023-04-25T00:02:09;3.57;;;2.50;;
17592;SDS011;8915;51.760;14.300;2023-04-25T00:04:36;5.03;;;2.50;;
17592;SDS011;8915;51.760;14.300;2023-04-25T00:07:03;4.90;;;2.50;;
17592;SDS011;8915;51.760;14.300;2023-04-25T00:09:30;5.37;;;2.40;;
17592;SDS011;8915;51.760;14.300;2023-04-25T00:11:56;4.53;;;2.37;;
17592;SDS011;8915;51.760;14.300;2023-04-25T00:14:22;4.27;;;2.70;;
17592;SDS011;8915;51.760;14.300;2023-04-25T00:16:48;5.57;;;2.80;;
17592;SDS011;8915;51.760;14.300;2023-04-25T00:19:16;4.00;;;2.70;;
17592;SDS011;8915;51.760;14.300;2023-04-25T00:21:44;4.40;;;2.57;;
17592;SDS011;8915;51.760;14.300;2023-04-25T00:24:11;6.47;;;2.97;;
17592;SDS011;8915;51.760;14.300;2023-04-25T00:26:37;4.67;;;3.17;;
17592;SDS011;8915;51.760;14.300;2023-04-25T00:29:04;3.67;;;2.90;;
17592;SDS011;8915;51.760;14.300;2023-04-25T00:31:30;5.33;;;2.77;;
17592;SDS011;8915;51.760;14.300;2023-04-25T00:33:57;3.97;;;3.00;;
17592;SDS011;8915;51.760;14.300;2023-04-25T00:36:24;3.17;;;2.70;;
17592;SDS011;8915;51.760;14.300;2023-04-25T00:38:52;3.63;;;2.87;;
17592;SDS011;8915;51.760;14.300;2023-04-25T00:41:18;3.00;;;2.60;;
17592;SDS011;8915;51.760;14.300;2023-04-25T00:43:45;4.47;;;3.27;;
17592;SDS011;8915;51.760;14.300;2023-04-25T00:46:12;4.90;;;3.17;;
17592;SDS011;8915;51.760;14.300;2023-04-25T00:48:39;5.17;;;2.80;;
17592;SDS011;8915;51.760;14.300;2023-04-25T00:51:05;3.93;;;3.00;;
17592;SDS011;8915;51.760;14.300;2023-04-25T00:53:32;3.57;;;3.00;;
17592;SDS011;8915;51.760;14.300;2023-04-25T00:55:59;5.30;;;2.93;;
17592;SDS011;8915;51.760;14.300;2023-04-25T00:58:26;3.73;;;2.97;;
17592;SDS011;8915;51.760;14.300;2023-04-25T01:00:52;4.97;;;3.07;;
17592;SDS011;8915;51.760;14.300;2023-04-25T01:03:19;4.37;;;2.77;;
17592;SDS011;8915;51.760;14.300;2023-04-25T01:05:45;4.17;;;2.90;;
17592;SDS011;8915;51.760;14.300;2023-04-25T01:08:12;5.17;;;3.07;;
17592;SDS011;8915;51.760;14.300;2023-04-25T01:10:39;4.50;;;3.20;;
17592;SDS011;8915;51.760;14.300;2023-04-25T01:13:07;4.40;;;3.23;;
17592;SDS011;8915;51.760;14.300;2023-04-25T01:15:33;5.00;;;3.17;;
17592;SDS011;8915;51.760;14.300;2023-04-25T01:18:01;5.37;;;3.27;;
17592;SDS011;8915;51.760;14.300;2023-04-25T01:20:27;3.87;;;2.83;;
17592;SDS011;8915;51.760;14.300;2023-04-25T01:22:57;3.97;;;2.93;;
17592;SDS011;8915;51.760;14.300;2023-04-25T01:25:23;4.97;;;3.53;;
17592;SDS011;8915;51.760;14.300;2023-04-25T01:27:50;5.50;;;3.90;;
17592;SDS011;8915;51.760;14.300;2023-04-25T01:30:16;4.20;;;3.17;;
17592;SDS011;8915;51.760;14.300;2023-04-25T01:32:43;5.73;;;3.53;;
17592;SDS011;8915;51.760;14.300;2023-04-25T01:35:10;5.23;;;3.43;;
17592;SDS011;8915;51.760;14.300;2023-04-25T01:37:37;5.97;;;3.40;;
17592;SDS011;8915;51.760;14.300;2023-04-25T01:40:06;3.97;;;3.23;;
17592;SDS011;8915;51.760;14.300;2023-04-25T01:42:34;4.53;;;3.30;;
17592;SDS011;8915;51.760;14.300;2023-04-25T01:45:01;4.60;;;3.20;;
17592;SDS011;8915;51.760;14.300;2023-04-25T01:47:28;4.70;;;3.27;;
17592;SDS011;8915;51.760;14.300;2023-04-25T01:49:54;5.93;;;3.53;;
17592;SDS011;8915;51.760;14.300;2023-04-25T01:52:21;6.90;;;3.57;;
17592;SDS011;8915;51.760;14.300;2023-04-25T01:54:48;5.63;;;3.50;;
17592;SDS011;8915;51.760;14.300;2023-04-25T01:57:16;6.37;;;2.83;;
17592;SDS011;8915;51.760;14.300;2023-04-25T01:59:43;4.47;;;3.47;;
17592;SDS011;8915;51.760;14.300;2023-04-25T02:02:37;4.07;;;3.50;;
17592;SDS011;8915;51.760;14.300;2023-04-25T02:05:07;4.47;;;3.13;;
17592;SDS011;8915;51.760;14.300;2023-04-25T02:07:36;6.60;;;4.10;;
17592;SDS011;8915;51.760;14.300;2023-04-25T02:10:03;5.30;;;3.43;;
17592;SDS011;8915;51.760;14.300;2023-04-25T02:12:35;6.13;;;3.47;;
17592;SDS011;8915;51.760;14.300;2023-04-25T02:15:20;4.17;;;3.30;;
17592;SDS011;8915;51.760;14.300;2023-04-25T02:17:54;4.00;;;3.47;;
17592;SDS011;8915;51.760;14.300;2023-04-25T02:20:20;6.73;;;3.83;;
17592;SDS011;8915;51.760;14.300;2023-04-25T02:22:47;4.83;;;3.63;;
17592;SDS011;8915;51.760;14.300;2023-04-25T02:25:13;6.13;;;3.83;;
17592;SDS011;8915;51.760;14.300;2023-04-25T02:27:42;5.23;;;3.50;;
17592;SDS011;8915;51.760;14.300;2023-04-25T02:30:08;7.77;;;4.20;;
17592;SDS011;8915;51.760;14.300;2023-04-25T02:32:35;7.20;;;4.40;;
17592;SDS011;8915;51.760;14.300;2023-04-25T02:35:01;7.50;;;4.30;;
17592;SDS011;8915;51.760;14.300;2023-04-25T02:37:29;6.73;;;4.53;;
17592;SDS011;8915;51.760;14.300;2023-04-25T02:39:55;9.30;;;4.30;;
17592;SDS011;8915;51.760;14.300;2023-04-25T02:42:23;5.73;;;4.07;;
17592;SDS011;8915;51.760;14.300;2023-04-25T02:44:50;6.10;;;3.73;;
17592;SDS011;8915;51.760;14.300;2023-04-25T02:47:16;7.67;;;3.90;;
17592;SDS011;8915;51.760;14.300;2023-04-25T02:49:43;6.27;;;3.97;;
17592;SDS011;8915;51.760;14.300;2023-04-25T02:52:10;5.63;;;4.07;;
17592;SDS011;8915;51.760;14.300;2023-04-25T02:54:37;9.53;;;4.20;;
17592;SDS011;8915;51.760;14.300;2023-04-25T02:57:04;6.73;;;3.90;;
17592;SDS011;8915;51.760;14.300;2023-04-25T02:59:34;8.10;;;4.23;;
17592;SDS011;8915;51.760;14.300;2023-04-25T03:02:02;8.50;;;4.37;;
17592;SDS011;8915;51.760;14.300;2023-04-25T03:04:28;5.70;;;4.13;;
17592;SDS011;8915;51.760;14.300;2023-04-25T03:06:54;8.00;;;3.90;;
17592;SDS011;8915;51.760;14.300;2023-04-25T03:09:21;9.00;;;4.10;;
17592;SDS011;8915;51.760;14.300;2023-04-25T03:11:48;5.60;;;3.40;;
17592;SDS011;8915;51.760;14.300;2023-04-25T03:14:14;6.70;;;3.43;;
17592;SDS011;8915;51.760;14.300;2023-04-25T03:16:41;4.77;;;3.50;;
17592;SDS011;8915;51.760;14.300;2023-04-25T03:19:08;4.73;;;3.83;;
17592;SDS011;8915;51.760;14.300;2023-04-25T03:21:36;8.47;;;3.70;;
17592;SDS011;8915;51.760;14.300;2023-04-25T03:24:02;6.10;;;4.23;;
17592;SDS011;8915;51.760;14.300;2023-04-25T03:26:30;6.37;;;3.83;;
17592;SDS011;8915;51.760;14.300;2023-04-25T03:28:56;8.17;;;3.30;;
17592;SDS011;8915;51.760;14.300;2023-04-25T03:31:22;7.07;;;3.80;;
17592;SDS011;8915;51.760;14.300;2023-04-25T03:33:49;4.13;;;3.43;;
17592;SDS011;8915;51.760;14.300;2023-04-25T03:36:19;5.00;;;3.30;;
17592;SDS011;8915;51.760;14.300;2023-04-25T03:38:45;5.30;;;3.47;;
17592;SDS011;8915;51.760;14.300;2023-04-25T03:41:14;5.47;;;3.40;;
17592;SDS011;8915;51.760;14.300;2023-04-25T03:43:44;3.70;;;3.30;;
17592;SDS011;8915;51.760;14.300;2023-04-25T03:46:12;5.20;;;3.50;;
17592;SDS011;8915;51.760;14.300;2023-04-25T03:48:40;4.87;;;3.27;;
17592;SDS011;8915;51.760;14.300;2023-04-25T03:51:08;6.20;;;3.40;;
17592;SDS011;8915;51.760;14.300;2023-04-25T03:53:40;6.07;;;3.57;;
17592;SDS011;8915;51.760;14.300;2023-04-25T03:56:18;4.30;;;3.37;;
17592;SDS011;8915;51.760;14.300;2023-04-25T03:58:49;4.90;;;2.83;;
17592;SDS011;8915;51.760;14.300;2023-04-25T04:01:18;7.80;;;3.27;;
17592;SDS011;8915;51.760;14.300;2023-04-25T04:03:46;5.17;;;3.27;;
17592;SDS011;8915;51.760;14.300;2023-04-25T04:06:13;3.30;;;2.70;;
17592;SDS011;8915;51.760;14.300;2023-04-25T04:08:44;6.37;;;3.50;;
17592;SDS011;8915;51.760;14.300;2023-04-25T04:11:11;5.37;;;3.40;;
17592;SDS011;8915;51.760;14.300;2023-04-25T04:13:37;3.50;;;3.00;;
17592;SDS011;8915;51.760;14.300;2023-04-25T04:16:05;6.60;;;3.30;;
17592;SDS011;8915;51.760;14.300;2023-04-25T04:18:31;4.07;;;3.33;;
17592;SDS011;8915;51.760;14.300;2023-04-25T04:21:00;7.80;;;3.70;;
17592;SDS011;8915;51.760;14.300;2023-04-25T04:23:29;4.70;;;3.40;;
17592;SDS011;8915;51.760;14.300;2023-04-25T04:25:58;6.83;;;4.03;;
17592;SDS011;8915;51.760;14.300;2023-04-25T04:28:51;5.93;;;3.53;;
17592;SDS011;8915;51.760;14.300;2023-04-25T04:31:29;5.90;;;3.70;;
17592;SDS011;8915;51.760;14.300;2023-04-25T04:33:55;4.97;;;3.60;;
17592;SDS011;8915;51.760;14.300;2023-04-25T04:36:22;6.30;;;3.57;;
17592;SDS011;8915;51.760;14.300;2023-04-25T04:38:51;7.23;;;3.33;;
17592;SDS011;8915;51.760;14.300;2023-04-25T04:41:32;6.03;;;4.00;;
17592;SDS011;8915;51.760;14.300;2023-04-25T04:44:08;5.17;;;3.60;;
17592;SDS011;8915;51.760;14.300;2023-04-25T04:46:44;5.27;;;3.80;;
17592;SDS011;8915;51.760;14.300;2023-04-25T04:49:29;6.70;;;4.50;;
17592;SDS011;8915;51.760;14.300;2023-04-25T04:52:07;5.77;;;4.10;;
17592;SDS011;8915;51.760;14.300;2023-04-25T04:55:00;6.30;;;4.17;;
17592;SDS011;8915;51.760;14.300;2023-04-25T04:57:35;7.57;;;4.10;;
17592;SDS011;8915;51.760;14.300;2023-04-25T05:00:34;5.33;;;3.93;;
17592;SDS011;8915;51.760;14.300;2023-04-25T05:03:11;8.10;;;4.30;;
17592;SDS011;8915;51.760;14.300;2023-04-25T05:05:47;8.23;;;4.33;;
17592;SDS011;8915;51.760;14.300;2023-04-25T05:08:34;9.27;;;4.23;;
17592;SDS011;8915;51.760;14.300;2023-04-25T05:11:23;10.93;;;4.70;;
17592;SDS011;8915;51.760;14.300;2023-04-25T05:13:58;7.90;;;4.30;;
17592;SDS011;8915;51.760;14.300;2023-04-25T05:16:37;8.97;;;4.90;;
17592;SDS011;8915;51.760;14.300;2023-04-25T05:19:18;8.90;;;4.47;;
17592;SDS011;8915;51.760;14.300;2023-04-25T05:22:03;7.07;;;5.03;;
17592;SDS011;8915;51.760;14.300;2023-04-25T05:24:36;7.03;;;4.83;;
17592;SDS011;8915;51.760;14.300;2023-04-25T05:27:11;8.40;;;4.80;;
17592;SDS011;8915;51.760;14.300;2023-04-25T05:29:47;7.20;;;4.10;;
17592;SDS011;8915;51.760;14.300;2023-04-25T05:32:24;7.03;;;4.57;;
17592;SDS011;8915;51.760;14.300;2023-04-25T05:34:50;8.13;;;4.60;;
17592;SDS011;8915;51.760;14.300;2023-04-25T05:37:27;6.77;;;4.53;;
17592;SDS011;8915;51.760;14.300;2023-04-25T05:40:02;8.77;;;4.80;;
17592;SDS011;8915;51.760;14.300;2023-04-25T05:42:43;8.00;;;4.53;;
17592;SDS011;8915;51.760;14.300;2023-04-25T05:45:42;7.33;;;4.07;;
17592;SDS011;8915;51.760;14.300;2023-04-25T05:48:47;6.77;;;3.70;;
17592;SDS011;8915;51.760;14.300;2023-04-25T05:51:32;5.77;;;3.67;;
17592;SDS011;8915;51.760;14.300;2023-04-25T05:54:11;6.80;;;4.07;;
17592;SDS011;8915;51.760;14.300;2023-04-25T05:56:39;5.87;;;3.87;;
17592;SDS011;8915;51.760;14.300;2023-04-25T05:59:06;9.53;;;4.03;;
17592;SDS011;8915;51.760;14.300;2023-04-25T06:01:34;7.10;;;3.30;;
17592;SDS011;8915;51.760;14.300;2023-04-25T06:04:01;7.30;;;3.67;;
17592;SDS011;8915;51.760;14.300;2023-04-25T06:06:28;4.50;;;3.40;;
17592;SDS011;8915;51.760;14.300;2023-04-25T06:08:57;7.60;;;3.47;;
17592;SDS011;8915;51.760;14.300;2023-04-25T06:11:24;6.37;;;3.93;;
17592;SDS011;8915;51.760;14.300;2023-04-25T06:13:51;3.90;;;3.17;;
17592;SDS011;8915;51.760;14.300;2023-04-25T06:16:17;4.47;;;3.20;;
17592;SDS011;8915;51.760;14.300;2023-04-25T06:18:45;12.80;;;3.53;;
17592;SDS011;8915;51.760;14.300;2023-04-25T06:21:11;5.70;;;3.27;;
17592;SDS011;8915;51.760;14.300;2023-04-25T06:23:39;5.53;;;3.03;;
17592;SDS011;8915;51.760;14.300;2023-04-25T06:26:06;7.27;;;3.50;;
17592;SDS011;8915;51.760;14.300;2023-04-25T06:28:36;6.37;;;2.97;;
17592;SDS011;8915;51.760;14.300;2023-04-25T06:31:03;9.33;;;3.33;;
17592;SDS011;8915;51.760;14.300;2023-04-25T06:33:30;4.80;;;2.97;;
17592;SDS011;8915;51.760;14.300;2023-04-25T06:35:58;6.63;;;3.40;;
17592;SDS011;8915;51.760;14.300;2023-04-25T06:38:26;3.63;;;2.70;;
17592;SDS011;8915;51.760;14.300;2023-04-25T06:40:55;6.23;;;3.30;;
17592;SDS011;8915;51.760;14.300;2023-04-25T06:43:22;4.97;;;3.07;;
17592;SDS011;8915;51.760;14.300;2023-04-25T06:45:49;4.90;;;2.50;;
17592;SDS011;8915;51.760;14.300;2023-04-25T06:48:16;6.60;;;3.27;;
17592;SDS011;8915;51.760;14.300;2023-04-25T06:50:42;3.70;;;2.10;;
17592;SDS011;8915;51.760;14.300;2023-04-25T06:53:12;5.23;;;3.03;;
17592;SDS011;8915;51.760;14.300;2023-04-25T06:55:41;6.50;;;2.70;;
17592;SDS011;8915;51.760;14.300;2023-04-25T06:58:17;3.67;;;2.53;;
17592;SDS011;8915;51.760;14.300;2023-04-25T07:00:54;4.50;;;3.30;;
17592;SDS011;8915;51.760;14.300;2023-04-25T07:03:23;4.03;;;2.60;;
17592;SDS011;8915;51.760;14.300;2023-04-25T07:05:54;6.20;;;4.07;;
17592;SDS011;8915;51.760;14.300;2023-04-25T07:08:24;3.37;;;2.37;;
17592;SDS011;8915;51.760;14.300;2023-04-25T07:10:50;4.70;;;2.20;;
17592;SDS011;8915;51.760;14.300;2023-04-25T07:13:17;3.83;;;2.50;;
17592;SDS011;8915;51.760;14.300;2023-04-25T07:15:43;4.07;;;2.20;;
17592;SDS011;8915;51.760;14.300;2023-04-25T07:18:11;3.67;;;2.90;;
17592;SDS011;8915;51.760;14.300;2023-04-25T07:20:37;4.37;;;2.40;;
17592;SDS011;8915;51.760;14.300;2023-04-25T07:23:04;5.20;;;2.40;;
17592;SDS011;8915;51.760;14.300;2023-04-25T07:25:32;7.03;;;2.20;;
17592;SDS011;8915;51.760;14.300;2023-04-25T07:28:07;3.87;;;2.33;;
17592;SDS011;8915;51.760;14.300;2023-04-25T07:30:35;4.03;;;2.10;;
17592;SDS011;8915;51.760;14.300;2023-04-25T07:33:02;2.50;;;2.00;;
17592;SDS011;8915;51.760;14.300;2023-04-25T07:35:30;4.43;;;2.53;;
17592;SDS011;8915;51.760;14.300;2023-04-25T07:37:58;2.97;;;2.10;;
17592;SDS011;8915;51.760;14.300;2023-04-25T07:40:25;4.03;;;2.30;;
17592;SDS011;8915;51.760;14.300;2023-04-25T07:42:59;2.97;;;2.33;;
17592;SDS011;8915;51.760;14.300;2023-04-25T07:45:36;5.10;;;2.60;;
17592;SDS011;8915;51.760;14.300;2023-04-25T07:48:04;2.40;;;2.17;;
17592;SDS011;8915;51.760;14.300;2023-04-25T07:50:34;4.13;;;2.40;;
17592;SDS011;8915;51.760;14.300;2023-04-25T07:53:01;5.53;;;2.90;;
17592;SDS011;8915;51.760;14.300;2023-04-25T07:55:35;3.23;;;2.57;;
17592;SDS011;8915;51.760;14.300;2023-04-25T07:58:11;6.37;;;2.17;;
17592;SDS011;8915;51.760;14.300;2023-04-25T08:00:41;5.67;;;2.47;;
17592;SDS011;8915;51.760;14.300;2023-04-25T08:03:25;2.27;;;2.00;;
17592;SDS011;8915;51.760;14.300;2023-04-25T08:05:53;4.03;;;2.00;;
17592;SDS011;8915;51.760;14.300;2023-04-25T08:08:20;3.73;;;2.50;;
17592;SDS011;8915;51.760;14.300;2023-04-25T08:10:48;3.73;;;2.30;;
17592;SDS011;8915;51.760;14.300;2023-04-25T08:13:20;4.00;;;2.07;;
17592;SDS011;8915;51.760;14.300;2023-04-25T08:15:47;5.20;;;2.13;;
17592;SDS011;8915;51.760;14.300;2023-04-25T08:18:14;3.77;;;2.03;;
17592;SDS011;8915;51.760;14.300;2023-04-25T08:20:43;5.20;;;1.97;;
17592;SDS011;8915;51.760;14.300;2023-04-25T08:23:12;3.33;;;1.73;;
17592;SDS011;8915;51.760;14.300;2023-04-25T08:25:50;3.80;;;2.20;;
17592;SDS011;8915;51.760;14.300;2023-04-25T08:28:21;3.90;;;2.00;;
17592;SDS011;8915;51.760;14.300;2023-04-25T08:30:48;3.27;;;1.80;;
17592;SDS011;8915;51.760;14.300;2023-04-25T08:33:17;4.40;;;2.63;;
17592;SDS011;8915;51.760;14.300;2023-04-25T08:36:04;3.20;;;2.10;;
17592;SDS011;8915;51.760;14.300;2023-04-25T08:38:31;3.73;;;1.80;;
17592;SDS011;8915;51.760;14.300;2023-04-25T08:40:59;3.80;;;2.10;;
17592;SDS011;8915;51.760;14.300;2023-04-25T08:43:28;2.30;;;2.00;;
17592;SDS011;8915;51.760;14.300;2023-04-25T08:45:56;2.40;;;1.70;;
17592;SDS011;8915;51.760;14.300;2023-04-25T08:48:33;2.33;;;1.70;;
17592;SDS011;8915;51.760;14.300;2023-04-25T08:51:03;3.47;;;1.87;;
17592;SDS011;8915;51.760;14.300;2023-04-25T08:53:32;2.43;;;1.77;;
17592;SDS011;8915;51.760;14.300;2023-04-25T08:56:03;2.83;;;1.90;;
17592;SDS011;8915;51.760;14.300;2023-04-25T08:58:35;3.03;;;1.80;;
17592;SDS011;8915;51.760;14.300;2023-04-25T09:01:02;1.90;;;1.60;;
17592;SDS011;8915;51.760;14.300;2023-04-25T09:03:37;2.60;;;2.07;;
17592;SDS011;8915;51.760;14.300;2023-04-25T09:06:04;3.37;;;2.00;;
17592;SDS011;8915;51.760;14.300;2023-04-25T09:08:31;2.50;;;1.83;;
17592;SDS011;8915;51.760;14.300;2023-04-25T09:10:57;2.37;;;1.83;;
17592;SDS011;8915;51.760;14.300;2023-04-25T09:13:24;3.07;;;1.73;;
17592;SDS011;8915;51.760;14.300;2023-04-25T09:16:15;4.17;;;2.20;;
17592;SDS011;8915;51.760;14.300;2023-04-25T09:19:02;2.67;;;2.23;;
17592;SDS011;8915;51.760;14.300;2023-04-25T09:21:31;5.23;;;2.60;;
17592;SDS011;8915;51.760;14.300;2023-04-25T09:23:58;2.73;;;2.43;;
17592;SDS011;8915;51.760;14.300;2023-04-25T09:26:26;4.50;;;3.23;;
17592;SDS011;8915;51.760;14.300;2023-04-25T09:28:57;3.93;;;3.10;;
17592;SDS011;8915;51.760;14.300;2023-04-25T09:31:33;4.47;;;2.40;;
17592;SDS011;8915;51.760;14.300;2023-04-25T09:34:01;4.23;;;2.87;;
17592;SDS011;8915;51.760;14.300;2023-04-25T09:36:34;4.70;;;2.60;;
17592;SDS011;8915;51.760;14.300;2023-04-25T09:39:15;3.77;;;3.20;;
17592;SDS011;8915;51.760;14.300;2023-04-25T09:41:53;3.33;;;2.53;;
17592;SDS011;8915;51.760;14.300;2023-04-25T09:44:22;4.20;;;3.00;;
17592;SDS011;8915;51.760;14.300;2023-04-25T09:46:53;4.07;;;2.50;;
17592;SDS011;8915;51.760;14.300;2023-04-25T09:49:24;2.60;;;2.23;;
17592;SDS011;8915;51.760;14.300;2023-04-25T09:51:59;2.60;;;2.13;;
17592;SDS011;8915;51.760;14.300;2023-04-25T09:54:31;5.00;;;2.20;;
17592;SDS011;8915;51.760;14.300;2023-04-25T09:57:08;2.10;;;1.90;;
17592;SDS011;8915;51.760;14.300;2023-04-25T09:59:36;7.43;;;2.87;;
17592;SDS011;8915;51.760;14.300;2023-04-25T10:02:06;4.07;;;2.50;;
17592;SDS011;8915;51.760;14.300;2023-04-25T10:04:36;4.63;;;2.60;;
17592;SDS011;8915;51.760;14.300;2023-04-25T10:07:08;5.37;;;2.70;;
17592;SDS011;8915;51.760;14.300;2023-04-25T10:09:36;5.80;;;2.50;;
17592;SDS011;8915;51.760;14.300;2023-04-25T10:12:04;3.27;;;2.67;;
17592;SDS011;8915;51.760;14.300;2023-04-25T10:14:31;5.57;;;2.70;;
17592;SDS011;8915;51.760;14.300;2023-04-25T10:16:59;4.17;;;2.47;;
17592;SDS011;8915;51.760;14.300;2023-04-25T10:19:28;3.03;;;2.60;;
17592;SDS011;8915;51.760;14.300;2023-04-25T10:21:56;3.63;;;2.40;;
17592;SDS011;8915;51.760;14.300;2023-04-25T10:24:27;4.50;;;2.37;;
17592;SDS011;8915;51.760;14.300;2023-04-25T10:26:54;1.73;;;1.40;;
17592;SDS011;8915;51.760;14.300;2023-04-25T10:29:22;5.53;;;2.00;;
17592;SDS011;8915;51.760;14.300;2023-04-25T10:31:51;4.30;;;1.70;;
17592;SDS011;8915;51.760;14.300;2023-04-25T10:34:19;4.73;;;1.77;;
17592;SDS011;8915;51.760;14.300;2023-04-25T10:36:50;2.10;;;1.67;;
17592;SDS011;8915;51.760;14.300;2023-04-25T10:39:22;2.03;;;1.60;;
17592;SDS011;8915;51.760;14.300;2023-04-25T10:41:52;2.53;;;1.70;;
17592;SDS011;8915;51.760;14.300;2023-04-25T10:44:20;1.43;;;1.33;;
17592;SDS011;8915;51.760;14.300;2023-04-25T10:46:47;1.07;;;1.00;;
17592;SDS011;8915;51.760;14.300;2023-04-25T10:49:28;3.03;;;1.30;;
17592;SDS011;8915;51.760;14.300;2023-04-25T10:54:41;2.03;;;1.37;;
17592;SDS011;8915;51.760;14.300;2023-04-25T10:57:07;2.93;;;1.37;;
17592;SDS011;8915;51.760;14.300;2023-04-25T10:59:33;4.00;;;1.60;;
17592;SDS011;8915;51.760;14.300;2023-04-25T11:01:59;1.53;;;1.30;;
17592;SDS011;8915;51.760;14.300;2023-04-25T11:04:37;2.00;;;1.70;;
17592;SDS011;8915;51.760;14.300;2023-04-25T11:07:07;1.20;;;0.90;;
17592;SDS011;8915;51.760;14.300;2023-04-25T11:09:33;2.13;;;1.50;;
17592;SDS011;8915;51.760;14.300;2023-04-25T11:12:07;2.00;;;1.20;;
17592;SDS011;8915;51.760;14.300;2023-04-25T11:14:34;3.70;;;2.70;;
17592;SDS011;8915;51.760;14.300;2023-04-25T11:17:00;3.67;;;1.50;;
17592;SDS011;8915;51.760;14.300;2023-04-25T11:19:27;3.23;;;1.50;;
17592;SDS011;8915;51.760;14.300;2023-04-25T11:21:54;2.07;;;1.30;;
17592;SDS011;8915;51.760;14.300;2023-04-25T11:24:24;1.70;;;1.30;;
17592;SDS011;8915;51.760;14.300;2023-04-25T11:26:51;2.87;;;1.60;;
17592;SDS011;8915;51.760;14.300;2023-04-25T11:29:19;2.57;;;1.20;;
17592;SDS011;8915;51.760;14.300;2023-04-25T11:31:47;2.03;;;1.20;;
17592;SDS011;8915;51.760;14.300;2023-04-25T11:34:16;2.20;;;1.37;;
17592;SDS011;8915;51.760;14.300;2023-04-25T11:36:43;1.30;;;1.00;;
17592;SDS011;8915;51.760;14.300;2023-04-25T11:39:11;4.77;;;1.60;;
17592;SDS011;8915;51.760;14.300;2023-04-25T11:41:37;3.90;;;1.87;;
17592;SDS011;8915;51.760;14.300;2023-04-25T11:44:03;3.00;;;1.47;;
17592;SDS011;8915;51.760;14.300;2023-04-25T11:46:32;3.93;;;1.50;;
17592;SDS011;8915;51.760;14.300;2023-04-25T11:48:59;2.40;;;1.37;;
17592;SDS011;8915;51.760;14.300;2023-04-25T11:51:25;1.67;;;1.33;;
17592;SDS011;8915;51.760;14.300;2023-04-25T11:53:52;1.83;;;1.13;;
17592;SDS011;8915;51.760;14.300;2023-04-25T11:56:19;3.57;;;1.40;;
17592;SDS011;8915;51.760;14.300;2023-04-25T11:58:56;1.33;;;1.20;;
17592;SDS011;8915;51.760;14.300;2023-04-25T12:01:26;1.77;;;1.30;;
17592;SDS011;8915;51.760;14.300;2023-04-25T12:03:54;3.97;;;1.53;;
17592;SDS011;8915;51.760;14.300;2023-04-25T12:06:20;2.23;;;1.40;;
17592;SDS011;8915;51.760;14.300;2023-04-25T12:08:58;4.00;;;1.70;;
17592;SDS011;8915;51.760;14.300;2023-04-25T12:11:24;7.17;;;2.27;;
17592;SDS011;8915;51.760;14.300;2023-04-25T12:13:51;10.03;;;1.87;;
17592;SDS011;8915;51.760;14.300;2023-04-25T12:16:18;4.37;;;1.67;;
17592;SDS011;8915;51.760;14.300;2023-04-25T12:18:44;3.63;;;1.67;;
17592;SDS011;8915;51.760;14.300;2023-04-25T12:21:12;4.50;;;1.70;;
17592;SDS011;8915;51.760;14.300;2023-04-25T12:23:38;9.60;;;2.20;;
17592;SDS011;8915;51.760;14.300;2023-04-25T12:26:06;5.57;;;2.47;;
17592;SDS011;8915;51.760;14.300;2023-04-25T12:28:33;5.20;;;2.33;;
17592;SDS011;8915;51.760;14.300;2023-04-25T12:31:00;8.13;;;2.37;;
17592;SDS011;8915;51.760;14.300;2023-04-25T12:33:27;3.37;;;1.90;;
17592;SDS011;8915;51.760;14.300;2023-04-25T12:35:54;5.60;;;2.00;;
17592;SDS011;8915;51.760;14.300;2023-04-25T12:38:22;8.73;;;2.23;;
17592;SDS011;8915;51.760;14.300;2023-04-25T12:40:49;5.73;;;1.63;;
17592;SDS011;8915;51.760;14.300;2023-04-25T12:43:15;4.57;;;2.10;;
17592;SDS011;8915;51.760;14.300;2023-04-25T12:45:41;8.07;;;1.97;;
17592;SDS011;8915;51.760;14.300;2023-04-25T12:48:07;4.43;;;1.90;;
17592;SDS011;8915;51.760;14.300;2023-04-25T12:50:34;6.90;;;1.93;;
17592;SDS011;8915;51.760;14.300;2023-04-25T12:53:00;4.00;;;2.00;;
17592;SDS011;8915;51.760;14.300;2023-04-25T12:55:28;7.43;;;1.93;;
17592;SDS011;8915;51.760;14.300;2023-04-25T12:57:54;8.67;;;2.13;;
17592;SDS011;8915;51.760;14.300;2023-04-25T13:00:21;4.57;;;1.70;;
17592;SDS011;8915;51.760;14.300;2023-04-25T13:02:47;4.20;;;1.63;;
17592;SDS011;8915;51.760;14.300;2023-04-25T13:05:13;4.33;;;2.00;;
17592;SDS011;8915;51.760;14.300;2023-04-25T13:07:39;5.13;;;1.70;;
17592;SDS011;8915;51.760;14.300;2023-04-25T13:10:06;4.50;;;1.93;;
17592;SDS011;8915;51.760;14.300;2023-04-25T13:12:34;2.60;;;1.43;;
17592;SDS011;8915;51.760;14.300;2023-04-25T13:15:00;6.37;;;2.03;;
17592;SDS011;8915;51.760;14.300;2023-04-25T13:17:27;4.97;;;1.60;;
17592;SDS011;8915;51.760;14.300;2023-04-25T13:19:53;4.67;;;1.80;;
17592;SDS011;8915;51.760;14.300;2023-04-25T13:22:19;2.97;;;2.00;;
17592;SDS011;8915;51.760;14.300;2023-04-25T13:24:46;5.17;;;1.97;;
17592;SDS011;8915;51.760;14.300;2023-04-25T13:27:12;5.27;;;1.90;;
17592;SDS011;8915;51.760;14.300;2023-04-25T13:29:39;5.40;;;1.90;;
17592;SDS011;8915;51.760;14.300;2023-04-25T13:32:07;7.03;;;2.50;;
17592;SDS011;8915;51.760;14.300;2023-04-25T13:34:34;8.83;;;2.50;;
17592;SDS011;8915;51.760;14.300;2023-04-25T13:37:00;3.50;;;1.93;;
17592;SDS011;8915;51.760;14.300;2023-04-25T13:39:26;5.53;;;2.20;;
17592;SDS011;8915;51.760;14.300;2023-04-25T13:41:52;8.30;;;1.90;;
17592;SDS011;8915;51.760;14.300;2023-04-25T13:44:18;2.77;;;1.67;;
17592;SDS011;8915;51.760;14.300;2023-04-25T13:46:46;6.53;;;1.90;;
17592;SDS011;8915;51.760;14.300;2023-04-25T13:49:12;6.23;;;1.73;;
17592;SDS011;8915;51.760;14.300;2023-04-25T13:51:38;3.60;;;1.70;;
17592;SDS011;8915;51.760;14.300;2023-04-25T13:54:05;3.07;;;1.63;;
17592;SDS011;8915;51.760;14.300;2023-04-25T13:56:31;6.87;;;2.00;;
17592;SDS011;8915;51.760;14.300;2023-04-25T13:58:57;5.03;;;1.83;;
17592;SDS011;8915;51.760;14.300;2023-04-25T14:01:23;7.27;;;1.90;;
17592;SDS011;8915;51.760;14.300;2023-04-25T14:03:51;5.47;;;2.03;;
17592;SDS011;8915;51.760;14.300;2023-04-25T14:06:17;4.00;;;1.67;;
17592;SDS011;8915;51.760;14.300;2023-04-25T14:08:47;3.30;;;1.67;;
17592;SDS011;8915;51.760;14.300;2023-04-25T14:11:14;7.37;;;1.60;;
17592;SDS011;8915;51.760;14.300;2023-04-25T14:13:40;5.63;;;1.73;;
17592;SDS011;8915;51.760;14.300;2023-04-25T14:16:06;5.60;;;1.73;;
17592;SDS011;8915;51.760;14.300;2023-04-25T14:18:32;5.97;;;1.53;;
17592;SDS011;8915;51.760;14.300;2023-04-25T14:21:00;2.53;;;1.40;;
17592;SDS011;8915;51.760;14.300;2023-04-25T14:23:27;3.40;;;1.50;;
17592;SDS011;8915;51.760;14.300;2023-04-25T14:25:53;4.57;;;1.80;;
17592;SDS011;8915;51.760;14.300;2023-04-25T14:28:19;3.63;;;1.70;;
17592;SDS011;8915;51.760;14.300;2023-04-25T14:30:46;4.70;;;1.77;;
17592;SDS011;8915;51.760;14.300;2023-04-25T14:33:12;5.07;;;1.77;;
17592;SDS011;8915;51.760;14.300;2023-04-25T14:35:38;3.23;;;1.53;;
17592;SDS011;8915;51.760;14.300;2023-04-25T14:38:06;8.20;;;2.77;;
17592;SDS011;8915;51.760;14.300;2023-04-25T14:40:33;2.53;;;1.73;;
17592;SDS011;8915;51.760;14.300;2023-04-25T14:42:59;2.43;;;1.70;;
17592;SDS011;8915;51.760;14.300;2023-04-25T14:45:25;6.17;;;2.20;;
17592;SDS011;8915;51.760;14.300;2023-04-25T14:47:52;7.30;;;2.00;;
17592;SDS011;8915;51.760;14.300;2023-04-25T14:50:18;3.53;;;1.60;;
17592;SDS011;8915;51.760;14.300;2023-04-25T14:52:44;3.50;;;1.30;;
17592;SDS011;8915;51.760;14.300;2023-04-25T14:55:12;4.87;;;1.80;;
17592;SDS011;8915;51.760;14.300;2023-04-25T14:57:39;4.37;;;1.67;;
17592;SDS011;8915;51.760;14.300;2023-04-25T15:00:05;7.67;;;1.67;;
17592;SDS011;8915;51.760;14.300;2023-04-25T15:02:34;5.30;;;3.50;;
17592;SDS011;8915;51.760;14.300;2023-04-25T15:05:01;4.13;;;1.80;;